< < Back
Terminal Aerodrome Forecast


Current Version              Previous Versions:   1  2  3  4  5  6  7  8  9  

Terminal Aerodrome Forecast

108
FTUS44 KMRX 231606 AAC
TAFCHA
TAF AMD
KCHA 231606Z 2316/2412 01008KT 4SM -RA BR SCT007 OVC015
      WS020/15050KT
      TEMPO 2316/2318 2SM RA BR BKN007
     FM240000 18012KT P6SM OVC010
     FM240600 20010KT P6SM BKN015=

Latest METAR

736
SAUS80 KWBC 231600
MTRCHA
METAR KCHA 231553Z 01003KT 1SM RA BR BKN007 OVC014 10/09 A2995 RMK AO2
SFC VIS 1 1/2 SLP140 P0018 T01000089


USA.gov is the U.S. government's official web portal to all federal, state and local government web resources and services.